createdAt,value
2022-08-26T00:03:18.519Z,24.02
2022-08-26T00:08:21.276Z,24.01
2022-08-26T00:13:23.483Z,24.01
2022-08-26T00:18:25.942Z,23.96
2022-08-26T00:23:28.861Z,24.01
2022-08-26T00:28:31.371Z,24.00
2022-08-26T00:33:33.600Z,24.01
2022-08-26T00:38:37.865Z,24.02
2022-08-26T00:43:47.615Z,24.01
2022-08-26T00:48:53.952Z,24.00
2022-08-26T00:54:07.381Z,23.94
2022-08-26T00:59:14.845Z,23.68
2022-08-26T01:04:22.717Z,23.73
2022-08-26T01:09:25.654Z,23.58
2022-08-26T01:14:32.734Z,23.52
2022-08-26T01:19:48.848Z,23.57
2022-08-26T01:24:52.103Z,23.30
2022-08-26T01:29:55.962Z,23.25
2022-08-26T01:34:58.108Z,23.21
2022-08-26T01:40:01.006Z,23.20
2022-08-26T01:45:25.579Z,23.36
2022-08-26T01:50:31.963Z,23.12
2022-08-26T01:55:35.689Z,22.97
2022-08-26T02:00:38.650Z,22.91
2022-08-26T02:05:40.957Z,22.91
2022-08-26T02:10:45.793Z,22.92
2022-08-26T02:15:49.232Z,22.89
2022-08-26T02:20:54.402Z,22.90
2022-08-26T02:26:05.839Z,22.92
2022-08-26T02:31:08.183Z,22.81
2022-08-26T02:36:13.526Z,22.79
2022-08-26T02:41:18.139Z,22.79
2022-08-26T02:46:21.330Z,22.87
2022-08-26T02:51:30.157Z,22.95
2022-08-26T02:56:36.071Z,23.11
2022-08-26T03:01:39.064Z,23.11
2022-08-26T03:06:41.883Z,23.15
2022-08-26T03:11:44.121Z,23.22
2022-08-26T03:16:48.504Z,23.27
2022-08-26T03:21:52.506Z,23.36
2022-08-26T03:26:54.789Z,23.41
2022-08-26T03:31:57.252Z,23.52
2022-08-26T03:37:00.133Z,23.62
2022-08-26T03:42:02.266Z,23.76
2022-08-26T03:47:07.169Z,23.96
2022-08-26T03:52:09.399Z,24.05
2022-08-26T03:57:12.053Z,24.20
2022-08-26T04:02:14.219Z,24.32
2022-08-26T04:07:18.307Z,24.54
2022-08-26T04:12:21.078Z,24.68
2022-08-26T04:17:25.791Z,24.82
2022-08-26T04:22:28.352Z,25.04
2022-08-26T04:27:31.569Z,25.33
2022-08-26T04:32:33.706Z,25.55
2022-08-26T04:37:36.112Z,25.79
2022-08-26T04:42:38.316Z,25.99
2022-08-26T04:47:40.543Z,26.14
2022-08-26T04:52:43.215Z,26.36
2022-08-26T04:57:45.377Z,26.57
2022-08-26T05:02:48.303Z,26.66
2022-08-26T05:07:53.757Z,27.30
2022-08-26T05:12:55.843Z,28.30
2022-08-26T05:17:59.323Z,29.25
2022-08-26T05:23:03.353Z,30.07
2022-08-26T05:28:05.500Z,30.78
2022-08-26T05:33:09.866Z,31.71
2022-08-26T05:38:17.054Z,32.69
2022-08-26T05:43:20.032Z,33.31
2022-08-26T05:48:22.670Z,33.83
2022-08-26T05:53:26.609Z,34.46
2022-08-26T05:58:28.746Z,35.60
2022-08-26T06:03:33.421Z,36.29
2022-08-26T06:08:37.382Z,36.41
2022-08-26T06:13:40.053Z,37.16
2022-08-26T06:18:45.002Z,38.21
2022-08-26T06:24:07.678Z,39.43
2022-08-26T06:29:10.733Z,40.75
2022-08-26T06:34:18.778Z,42.10
2022-08-26T06:39:21.043Z,42.23
2022-08-26T06:44:23.590Z,43.22
2022-08-26T06:49:27.436Z,43.86
2022-08-26T06:54:31.842Z,44.78
2022-08-26T06:59:34.274Z,44.25
2022-08-26T07:04:36.612Z,44.49
2022-08-26T07:09:39.046Z,44.73
2022-08-26T07:14:47.262Z,45.33
2022-08-26T07:19:50.302Z,46.09
2022-08-26T07:24:52.459Z,46.99
2022-08-26T07:29:57.548Z,48.43
2022-08-26T07:35:00.579Z,48.47
2022-08-26T07:40:04.382Z,49.93
2022-08-26T07:45:07.274Z,50.72
2022-08-26T07:50:09.907Z,49.47
2022-08-26T07:55:12.169Z,48.81
2022-08-26T08:00:16.381Z,49.56
2022-08-26T08:05:22.366Z,49.71
2022-08-26T08:10:30.358Z,49.44
2022-08-26T08:15:35.258Z,47.76
2022-08-26T08:20:37.985Z,46.90
2022-08-26T08:25:40.105Z,47.08
2022-08-26T08:30:42.991Z,47.53
2022-08-26T08:35:46.240Z,46.42
2022-08-26T08:40:48.952Z,46.76
2022-08-26T08:45:58.081Z,47.76
2022-08-26T08:51:16.988Z,48.46
2022-08-26T08:56:29.133Z,48.43
2022-08-26T09:01:53.903Z,48.77
2022-08-26T09:06:59.675Z,48.40
2022-08-26T09:12:02.629Z,49.14
2022-08-26T09:17:22.925Z,49.65
2022-08-26T09:22:36.117Z,48.74
2022-08-26T09:27:38.198Z,48.07
2022-08-26T09:32:40.563Z,48.49
2022-08-26T09:43:22.295Z,48.90
2022-08-26T09:48:36.259Z,48.34
2022-08-26T09:53:51.913Z,49.71
2022-08-26T09:58:54.783Z,48.66
2022-08-26T10:04:19.998Z,49.61
2022-08-26T10:09:23.652Z,49.50
2022-08-26T10:14:34.812Z,50.30
2022-08-26T10:19:56.856Z,50.21
2022-08-26T10:25:03.867Z,49.92
2022-08-26T10:30:30.983Z,49.91
2022-08-26T10:35:37.232Z,49.45
2022-08-26T10:40:59.111Z,50.11
2022-08-26T10:46:12.540Z,48.63
2022-08-26T10:51:25.323Z,48.42
2022-08-26T10:56:49.928Z,48.48
2022-08-26T11:02:07.575Z,45.95
2022-08-26T11:07:32.172Z,43.78
2022-08-26T11:12:37.354Z,45.15
2022-08-26T11:17:48.691Z,46.99
2022-08-26T11:22:54.016Z,47.07
2022-08-26T11:27:59.844Z,47.21
2022-08-26T11:33:02.719Z,46.70
2022-08-26T11:38:25.572Z,46.02
2022-08-26T11:43:30.239Z,43.44
2022-08-26T11:48:40.440Z,43.29
2022-08-26T11:53:47.182Z,43.05
2022-08-26T11:59:00.051Z,41.35
2022-08-26T12:04:04.595Z,39.13
2022-08-26T12:09:13.672Z,38.18
2022-08-26T12:14:27.827Z,37.56
2022-08-26T12:19:33.911Z,37.50
2022-08-26T12:24:36.360Z,38.92
2022-08-26T12:29:38.447Z,40.79
2022-08-26T12:34:43.630Z,42.82
2022-08-26T12:39:47.033Z,44.42
2022-08-26T12:45:00.238Z,44.27
2022-08-26T12:50:24.003Z,44.30
2022-08-26T12:55:51.714Z,43.68
2022-08-26T13:01:18.798Z,42.90
2022-08-26T13:06:21.285Z,41.63
2022-08-26T13:11:34.376Z,41.20
2022-08-26T13:16:37.550Z,40.88
2022-08-26T13:21:54.582Z,42.07
2022-08-26T13:26:56.705Z,41.27
2022-08-26T13:31:59.762Z,40.95
2022-08-26T13:37:02.053Z,40.12
2022-08-26T13:42:04.399Z,39.88
2022-08-26T13:47:07.102Z,39.58
2022-08-26T13:52:09.834Z,38.89
2022-08-26T13:57:11.894Z,38.42
2022-08-26T14:02:14.779Z,38.23
2022-08-26T14:07:16.915Z,37.74
2022-08-26T14:12:19.016Z,37.18
2022-08-26T14:17:23.141Z,36.66
2022-08-26T14:22:25.248Z,36.26
2022-08-26T14:27:27.387Z,36.04
2022-08-26T14:32:30.052Z,35.72
2022-08-26T14:37:32.258Z,35.34
2022-08-26T14:42:34.843Z,35.03
2022-08-26T14:47:36.902Z,34.76
2022-08-26T14:52:57.686Z,34.61
2022-08-26T14:57:59.642Z,35.18
2022-08-26T15:03:01.899Z,34.31
2022-08-26T15:08:10.345Z,34.00
2022-08-26T15:13:12.841Z,33.72
2022-08-26T15:18:14.956Z,33.49
2022-08-26T15:23:17.108Z,33.17
2022-08-26T15:28:19.780Z,33.07
2022-08-26T15:33:24.503Z,32.92
2022-08-26T15:38:30.221Z,32.83
2022-08-26T15:43:32.497Z,32.56
2022-08-26T15:48:34.617Z,32.43
2022-08-26T15:53:36.683Z,32.26
2022-08-26T15:58:38.743Z,32.17
2022-08-26T16:03:43.059Z,32.09
2022-08-26T16:08:45.607Z,31.98
2022-08-26T16:13:47.947Z,31.83
2022-08-26T16:18:50.184Z,31.58
2022-08-26T16:23:52.468Z,31.50
2022-08-26T16:28:55.326Z,31.35
2022-08-26T16:33:57.884Z,31.24
2022-08-26T16:39:00.196Z,31.12
2022-08-26T16:44:02.748Z,31.02
2022-08-26T16:49:04.847Z,30.91
2022-08-26T16:54:08.968Z,30.80
2022-08-26T16:59:11.771Z,30.69
2022-08-26T17:04:13.908Z,30.57
2022-08-26T17:09:16.807Z,30.47
2022-08-26T17:14:20.015Z,30.42
2022-08-26T17:19:32.832Z,30.31
2022-08-26T17:24:43.277Z,30.23
2022-08-26T17:29:45.738Z,30.05
2022-08-26T17:34:47.889Z,29.94
2022-08-26T17:39:50.156Z,29.76
2022-08-26T17:44:52.447Z,29.61
2022-08-26T17:49:54.800Z,29.55
2022-08-26T17:54:57.970Z,29.47
2022-08-26T18:00:00.482Z,29.32
2022-08-26T18:05:03.571Z,29.24
2022-08-26T18:10:13.157Z,29.24
2022-08-26T18:15:17.005Z,29.07
2022-08-26T18:20:19.834Z,28.98
2022-08-26T18:25:22.132Z,28.87
2022-08-26T18:30:25.393Z,28.82
2022-08-26T18:35:30.003Z,28.74
2022-08-26T18:40:32.191Z,28.63
2022-08-26T18:45:35.970Z,28.62
2022-08-26T18:50:40.306Z,28.55
2022-08-26T18:55:42.742Z,28.49
2022-08-26T19:00:45.066Z,28.46
2022-08-26T19:05:47.219Z,28.36
2022-08-26T19:10:49.714Z,28.29
2022-08-26T19:15:51.871Z,28.18
2022-08-26T19:20:54.050Z,28.08
2022-08-26T19:25:58.585Z,27.99
2022-08-26T19:31:01.064Z,28.00
2022-08-26T19:36:06.331Z,27.91
2022-08-26T19:41:37.948Z,27.92
2022-08-26T19:46:40.477Z,27.80
2022-08-26T19:51:42.686Z,27.72
2022-08-26T19:56:47.995Z,27.66
2022-08-26T20:02:00.683Z,27.47
2022-08-26T20:07:05.663Z,27.48
2022-08-26T20:12:08.321Z,27.35
2022-08-26T20:17:11.157Z,27.20
2022-08-26T20:22:15.257Z,27.16
2022-08-26T20:27:17.428Z,27.06
2022-08-26T20:32:19.583Z,26.96
2022-08-26T20:37:22.035Z,26.92
2022-08-26T20:42:24.295Z,26.88
2022-08-26T20:47:26.549Z,26.81
2022-08-26T20:52:31.276Z,26.67
2022-08-26T20:57:34.003Z,26.49
2022-08-26T21:02:37.022Z,26.20
2022-08-26T21:07:39.490Z,25.93
2022-08-26T21:12:41.608Z,25.80
2022-08-26T21:17:44.210Z,25.74
2022-08-26T21:22:46.687Z,25.71
2022-08-26T21:27:48.860Z,25.63
2022-08-26T21:32:51.032Z,25.56
2022-08-26T21:37:53.111Z,25.50
2022-08-26T21:42:55.283Z,25.42
2022-08-26T21:47:57.568Z,25.33
2022-08-26T21:53:00.477Z,25.25
2022-08-26T21:58:02.691Z,25.19
2022-08-26T22:03:04.852Z,25.19
2022-08-26T22:08:06.959Z,25.11
2022-08-26T22:13:09.988Z,25.14
2022-08-26T22:18:12.123Z,25.11
2022-08-26T22:23:14.230Z,25.15
2022-08-26T22:28:17.530Z,25.14
2022-08-26T22:33:19.719Z,25.02
2022-08-26T22:38:24.001Z,24.98
2022-08-26T22:43:28.705Z,24.90
2022-08-26T22:48:31.265Z,24.76
2022-08-26T22:53:35.957Z,24.68
2022-08-26T22:58:43.696Z,24.59
2022-08-26T23:03:46.105Z,24.43
2022-08-26T23:08:48.297Z,24.37
2022-08-26T23:13:50.390Z,24.31
2022-08-26T23:18:53.715Z,24.34
2022-08-26T23:23:56.423Z,24.40
2022-08-26T23:28:58.586Z,24.41
2022-08-26T23:34:19.198Z,24.39
2022-08-26T23:39:21.442Z,24.34
2022-08-26T23:44:25.981Z,24.23
2022-08-26T23:49:28.725Z,24.10
2022-08-26T23:54:32.978Z,23.93
2022-08-26T23:59:37.011Z,23.85
